Praia Do Neiva — CUBL7 — position and weather

sailwx.info

Track history (hours):
 
Tides and Currents Weather Stations Pressure Air Temp Water Temp Dewpoint Dewpoint Depression Visibility Wind Speed Wind Dir Waves Ship Positions

Praia Do Neiva

Last reported at 2018-Aug-14 14:59 UTC. Time now 2018-Aug-14 15:17 UTC.
Position N 41°11' W 008°42'.

Length 16 m.

Type: Fishing. MMSI: 263214000.

Date/timePositionNaut miles runAvg speedWind from/ knotsBaromVisibWave heightAir tempDewpointWater temp
2018-Aug-14 14:59N 41°11' W 008°42'4 7.1
2018-Aug-14 14:29N 41°09' W 008°47'3 0.1
2018-Aug-13 19:17N 41°08' W 008°44'2 8.1
2018-Aug-13 19:00N 41°10' W 008°42'1 0.4
2018-Aug-13 15:53N 41°11' W 008°42'0 0.0
2018-Aug-13 15:30N 41°11' W 008°42'3 5.4
2018-Aug-13 15:00N 41°09' W 008°45'1 0.1
2018-Aug-12 20:19N 41°08' W 008°45'2 7.3
2018-Aug-12 20:00N 41°10' W 008°43'  
2018-Aug-08 14:54N 41°11' W 008°42'0 0.4
2018-Aug-08 14:30N 41°11' W 008°42'2 3.8
2018-Aug-08 14:00N 41°10' W 008°44'4 0.2
2018-Aug-07 22:25N 41°09' W 008°49'3 7.5
2018-Aug-07 22:00N 41°10' W 008°45'3 0.2
2018-Aug-07 08:32N 41°11' W 008°42'0 0.0
2018-Aug-07 08:30N 41°11' W 008°42'1 1.4
2018-Aug-07 08:00N 41°10' W 008°42'3 6.5
2018-Aug-07 07:29N 41°08' W 008°45'  
Track history (hours):
 
Tides and Currents Weather Stations Pressure Air Temp Water Temp Dewpoint Dewpoint Depression Visibility Wind Speed Wind Dir Waves Ship Positions

Praia Do Neiva

Last reported at 2018-Aug-14 14:59 UTC. Time now 2018-Aug-14 15:17 UTC.
Position N 41°11' W 008°42'.

Length 16 m.

Type: Fishing. MMSI: 263214000.

Date/timePositionNaut miles runAvg speedWind from/ knotsBaromVisibWave heightAir tempDewpointWater temp
2018-Aug-14 14:59N 41°11' W 008°42'4 7.1
2018-Aug-14 14:29N 41°09' W 008°47'3 0.1
2018-Aug-13 19:17N 41°08' W 008°44'2 8.1
2018-Aug-13 19:00N 41°10' W 008°42'1 0.4
2018-Aug-13 15:53N 41°11' W 008°42'0 0.0
2018-Aug-13 15:30N 41°11' W 008°42'3 5.4
2018-Aug-13 15:00N 41°09' W 008°45'1 0.1
2018-Aug-12 20:19N 41°08' W 008°45'2 7.3
2018-Aug-12 20:00N 41°10' W 008°43'  
2018-Aug-08 14:54N 41°11' W 008°42'0 0.4
2018-Aug-08 14:30N 41°11' W 008°42'2 3.8
2018-Aug-08 14:00N 41°10' W 008°44'4 0.2
2018-Aug-07 22:25N 41°09' W 008°49'3 7.5
2018-Aug-07 22:00N 41°10' W 008°45'3 0.2
2018-Aug-07 08:32N 41°11' W 008°42'0 0.0
2018-Aug-07 08:30N 41°11' W 008°42'1 1.4
2018-Aug-07 08:00N 41°10' W 008°42'3 6.5
2018-Aug-07 07:29N 41°08' W 008°45'  

Dump ship's entire track history